Hikone, Japan

11:02 AM JST on August 29, 2016 (GMT +0900)
Hatchome Nanboku Dori | | Change Station

Elev 295 ft 35.23 °N, 136.22 °E | Updated 1 minute ago

Rain Showers
Showers Rain Mist
84.9 °F
Feels Like 91 °F
N
1.2
Wind Variable Wind from NW
Gusts 4.3 mph

Today
High -- | Low -- °F
--% Chance of Precip.
Yesterday
High -- | Low -- °F
Precip. -- in
Pressure 29.27 in
Visibility 3.1 miles
Clouds Few 800 ft
Scattered Clouds 3000 ft
Mostly Cloudy 4500 ft
Heat Index 91 °F
Dew Point 73 °F
Humidity 67%
Rainfall 0.00 in
Snow Depth Not available.
5:25 AM 6:26 PM
Waning Crescent, 12% visible
SPECI RJOO 290146Z 06004KT 010V100 5000 SHRA BR FEW008 SCT030 BKN045 25/24 Q0991 RMK 1ST008 3CU030 7CU045 A2928
Pressure 29.27 in
Visibility 3.1 miles
Clouds Few 800 ft
Scattered Clouds 3000 ft
Mostly Cloudy 4500 ft
Heat Index 91 °F
Dew Point 73 °F
Humidity 67%
Rainfall 0.00 in
Snow Depth Not available.
5:25 AM 6:26 PM
Waning Crescent, 12% visible
SPECI RJOO 290146Z 06004KT 010V100 5000 SHRA BR FEW008 SCT030 BKN045 25/24 Q0991 RMK 1ST008 3CU030 7CU045 A2928

10-Day Weather Forecast

No radar image for this location.
×

Almanac

Astronomy

Aug. 29, 2016 Rise Set
Actual Time
Civil Twilight
Nautical Twilight
Astronomical Twilight
Moon
Length of Visible Light
Length of Day
Tomorrow will be .
, % of the Moon is Illuminated

Today's Extremes

Country Highs Country Lows

Community

WunderPhotos

Upload Photos

1,935,768 photos uploaded!

WunderBlog® & News

Nearby

Air Quality

  Air Quality AQ Index Pollutant
Not available.

Snow Depth

Station Depth Elevation

Earthquake Activity

City Distance Mag. Time & Date
Minimum magnitude displayed is 2.5.

Coastal Water Temperatures

Place Temperature

Stations

Nearby Weather Stations

Station Location Temp. Windchill Dew Point Humidity Wind Precip. Elev Updated Type